sensor_id;sensor_type;location;lat;lon;timestamp;P1;durP1;ratioP1;P2;durP2;ratioP2
43606;SDS011;29197;44.788;10.366;2022-11-14T00:00:48;30.83;;;21.27;;
43606;SDS011;29197;44.788;10.366;2022-11-14T00:03:38;32.35;;;20.17;;
43606;SDS011;29197;44.788;10.366;2022-11-14T00:06:28;31.83;;;20.58;;
43606;SDS011;29197;44.788;10.366;2022-11-14T00:09:17;31.58;;;20.98;;
43606;SDS011;29197;44.788;10.366;2022-11-14T00:12:07;31.75;;;20.67;;
43606;SDS011;29197;44.788;10.366;2022-11-14T00:14:58;31.95;;;21.30;;
43606;SDS011;29197;44.788;10.366;2022-11-14T00:17:47;30.00;;;19.95;;
43606;SDS011;29197;44.788;10.366;2022-11-14T00:20:36;31.08;;;20.23;;
43606;SDS011;29197;44.788;10.366;2022-11-14T00:23:26;29.23;;;20.77;;
43606;SDS011;29197;44.788;10.366;2022-11-14T00:26:16;31.63;;;21.48;;
43606;SDS011;29197;44.788;10.366;2022-11-14T00:29:05;28.42;;;19.85;;
43606;SDS011;29197;44.788;10.366;2022-11-14T00:31:56;31.88;;;20.77;;
43606;SDS011;29197;44.788;10.366;2022-11-14T00:34:45;32.90;;;21.60;;
43606;SDS011;29197;44.788;10.366;2022-11-14T00:37:34;34.80;;;21.15;;
43606;SDS011;29197;44.788;10.366;2022-11-14T00:40:23;30.45;;;20.58;;
43606;SDS011;29197;44.788;10.366;2022-11-14T00:43:18;34.60;;;22.23;;
43606;SDS011;29197;44.788;10.366;2022-11-14T00:46:07;31.08;;;19.55;;
43606;SDS011;29197;44.788;10.366;2022-11-14T00:48:58;34.28;;;21.42;;
43606;SDS011;29197;44.788;10.366;2022-11-14T00:51:47;34.08;;;22.02;;
43606;SDS011;29197;44.788;10.366;2022-11-14T00:54:37;33.47;;;19.25;;
43606;SDS011;29197;44.788;10.366;2022-11-14T00:57:26;30.73;;;20.52;;
43606;SDS011;29197;44.788;10.366;2022-11-14T01:00:16;31.70;;;20.23;;
43606;SDS011;29197;44.788;10.366;2022-11-14T01:03:05;31.63;;;21.30;;
43606;SDS011;29197;44.788;10.366;2022-11-14T01:05:57;32.75;;;20.23;;
43606;SDS011;29197;44.788;10.366;2022-11-14T01:08:51;31.60;;;20.40;;
43606;SDS011;29197;44.788;10.366;2022-11-14T01:11:41;33.35;;;21.95;;
43606;SDS011;29197;44.788;10.366;2022-11-14T01:14:30;31.95;;;21.00;;
43606;SDS011;29197;44.788;10.366;2022-11-14T01:17:20;33.63;;;21.95;;
43606;SDS011;29197;44.788;10.366;2022-11-14T01:20:09;33.10;;;20.70;;
43606;SDS011;29197;44.788;10.366;2022-11-14T01:22:59;32.42;;;21.02;;
43606;SDS011;29197;44.788;10.366;2022-11-14T01:25:48;31.40;;;21.30;;
43606;SDS011;29197;44.788;10.366;2022-11-14T01:28:38;29.58;;;20.35;;
43606;SDS011;29197;44.788;10.366;2022-11-14T01:31:28;33.65;;;22.45;;
43606;SDS011;29197;44.788;10.366;2022-11-14T01:34:17;32.42;;;20.73;;
43606;SDS011;29197;44.788;10.366;2022-11-14T01:37:06;32.78;;;21.65;;
43606;SDS011;29197;44.788;10.366;2022-11-14T01:39:57;35.10;;;22.45;;
43606;SDS011;29197;44.788;10.366;2022-11-14T01:45:52;31.33;;;20.55;;
43606;SDS011;29197;44.788;10.366;2022-11-14T01:48:42;35.65;;;23.08;;
43606;SDS011;29197;44.788;10.366;2022-11-14T01:51:34;32.08;;;21.38;;
43606;SDS011;29197;44.788;10.366;2022-11-14T01:54:25;36.17;;;22.92;;
43606;SDS011;29197;44.788;10.366;2022-11-14T01:57:24;33.85;;;21.67;;
43606;SDS011;29197;44.788;10.366;2022-11-14T02:00:15;31.98;;;21.67;;
43606;SDS011;29197;44.788;10.366;2022-11-14T02:03:04;30.58;;;20.80;;
43606;SDS011;29197;44.788;10.366;2022-11-14T02:05:53;35.15;;;20.77;;
43606;SDS011;29197;44.788;10.366;2022-11-14T02:08:43;32.65;;;21.58;;
43606;SDS011;29197;44.788;10.366;2022-11-14T02:11:37;31.52;;;20.67;;
43606;SDS011;29197;44.788;10.366;2022-11-14T02:14:29;34.55;;;21.52;;
43606;SDS011;29197;44.788;10.366;2022-11-14T02:17:18;33.42;;;21.45;;
43606;SDS011;29197;44.788;10.366;2022-11-14T02:20:19;33.50;;;21.25;;
43606;SDS011;29197;44.788;10.366;2022-11-14T02:23:09;32.43;;;21.13;;
43606;SDS011;29197;44.788;10.366;2022-11-14T02:25:58;32.58;;;21.40;;
43606;SDS011;29197;44.788;10.366;2022-11-14T02:28:48;33.13;;;21.27;;
43606;SDS011;29197;44.788;10.366;2022-11-14T02:31:38;34.17;;;21.92;;
43606;SDS011;29197;44.788;10.366;2022-11-14T02:34:27;33.42;;;22.05;;
43606;SDS011;29197;44.788;10.366;2022-11-14T02:37:19;33.15;;;21.10;;
43606;SDS011;29197;44.788;10.366;2022-11-14T02:40:09;34.80;;;21.30;;
43606;SDS011;29197;44.788;10.366;2022-11-14T02:42:58;35.03;;;22.90;;
43606;SDS011;29197;44.788;10.366;2022-11-14T02:45:48;34.65;;;22.42;;
43606;SDS011;29197;44.788;10.366;2022-11-14T02:48:37;35.40;;;22.08;;
43606;SDS011;29197;44.788;10.366;2022-11-14T02:51:26;34.65;;;21.77;;
43606;SDS011;29197;44.788;10.366;2022-11-14T02:54:17;35.13;;;22.00;;
43606;SDS011;29197;44.788;10.366;2022-11-14T02:57:06;30.60;;;21.35;;
43606;SDS011;29197;44.788;10.366;2022-11-14T02:59:56;35.80;;;21.88;;
43606;SDS011;29197;44.788;10.366;2022-11-14T03:02:45;35.35;;;22.08;;
43606;SDS011;29197;44.788;10.366;2022-11-14T03:05:35;34.90;;;22.80;;
43606;SDS011;29197;44.788;10.366;2022-11-14T03:08:25;36.25;;;23.65;;
43606;SDS011;29197;44.788;10.366;2022-11-14T03:11:16;38.07;;;22.87;;
43606;SDS011;29197;44.788;10.366;2022-11-14T03:14:06;35.05;;;23.13;;
43606;SDS011;29197;44.788;10.366;2022-11-14T03:16:55;33.88;;;22.30;;
43606;SDS011;29197;44.788;10.366;2022-11-14T03:19:44;39.08;;;24.42;;
43606;SDS011;29197;44.788;10.366;2022-11-14T03:22:33;45.92;;;22.50;;
43606;SDS011;29197;44.788;10.366;2022-11-14T03:25:22;37.17;;;23.65;;
43606;SDS011;29197;44.788;10.366;2022-11-14T03:28:13;34.35;;;22.45;;
43606;SDS011;29197;44.788;10.366;2022-11-14T03:31:02;33.95;;;22.20;;
43606;SDS011;29197;44.788;10.366;2022-11-14T03:33:51;37.70;;;23.08;;
43606;SDS011;29197;44.788;10.366;2022-11-14T03:36:41;33.60;;;21.50;;
43606;SDS011;29197;44.788;10.366;2022-11-14T03:39:31;42.45;;;24.58;;
43606;SDS011;29197;44.788;10.366;2022-11-14T03:42:21;34.72;;;22.45;;
43606;SDS011;29197;44.788;10.366;2022-11-14T03:45:12;43.37;;;24.83;;
43606;SDS011;29197;44.788;10.366;2022-11-14T03:48:01;36.95;;;22.52;;
43606;SDS011;29197;44.788;10.366;2022-11-14T03:50:50;33.58;;;21.10;;
43606;SDS011;29197;44.788;10.366;2022-11-14T03:53:40;39.20;;;25.40;;
43606;SDS011;29197;44.788;10.366;2022-11-14T03:56:29;38.33;;;25.20;;
43606;SDS011;29197;44.788;10.366;2022-11-14T03:59:18;38.20;;;23.88;;
43606;SDS011;29197;44.788;10.366;2022-11-14T04:02:09;41.05;;;26.20;;
43606;SDS011;29197;44.788;10.366;2022-11-14T04:04:58;39.97;;;25.27;;
43606;SDS011;29197;44.788;10.366;2022-11-14T04:07:47;40.00;;;26.27;;
43606;SDS011;29197;44.788;10.366;2022-11-14T04:10:37;39.57;;;25.17;;
43606;SDS011;29197;44.788;10.366;2022-11-14T04:13:26;38.13;;;23.97;;
43606;SDS011;29197;44.788;10.366;2022-11-14T04:16:16;38.57;;;23.50;;
43606;SDS011;29197;44.788;10.366;2022-11-14T04:19:07;38.03;;;24.53;;
43606;SDS011;29197;44.788;10.366;2022-11-14T04:21:56;40.30;;;25.63;;
43606;SDS011;29197;44.788;10.366;2022-11-14T04:24:45;38.03;;;24.00;;
43606;SDS011;29197;44.788;10.366;2022-11-14T04:27:34;43.90;;;25.50;;
43606;SDS011;29197;44.788;10.366;2022-11-14T04:30:24;36.70;;;24.02;;
43606;SDS011;29197;44.788;10.366;2022-11-14T04:33:20;40.95;;;25.38;;
43606;SDS011;29197;44.788;10.366;2022-11-14T04:36:11;41.78;;;25.70;;
43606;SDS011;29197;44.788;10.366;2022-11-14T04:39:00;41.78;;;24.52;;
43606;SDS011;29197;44.788;10.366;2022-11-14T04:41:50;44.47;;;25.73;;
43606;SDS011;29197;44.788;10.366;2022-11-14T04:44:39;40.87;;;26.10;;
43606;SDS011;29197;44.788;10.366;2022-11-14T04:47:28;40.87;;;25.50;;
43606;SDS011;29197;44.788;10.366;2022-11-14T04:50:17;41.13;;;25.53;;
43606;SDS011;29197;44.788;10.366;2022-11-14T04:53:09;39.75;;;25.40;;
43606;SDS011;29197;44.788;10.366;2022-11-14T04:55:58;41.38;;;25.42;;
43606;SDS011;29197;44.788;10.366;2022-11-14T04:58:48;40.60;;;25.30;;
43606;SDS011;29197;44.788;10.366;2022-11-14T05:01:38;38.53;;;23.88;;
43606;SDS011;29197;44.788;10.366;2022-11-14T05:04:28;42.30;;;26.35;;
43606;SDS011;29197;44.788;10.366;2022-11-14T05:07:17;41.73;;;25.63;;
43606;SDS011;29197;44.788;10.366;2022-11-14T05:10:09;41.77;;;26.77;;
43606;SDS011;29197;44.788;10.366;2022-11-14T05:12:58;41.08;;;24.85;;
43606;SDS011;29197;44.788;10.366;2022-11-14T05:15:48;42.73;;;26.00;;
43606;SDS011;29197;44.788;10.366;2022-11-14T05:18:37;43.20;;;26.95;;
43606;SDS011;29197;44.788;10.366;2022-11-14T05:21:32;41.83;;;25.35;;
43606;SDS011;29197;44.788;10.366;2022-11-14T05:24:22;46.22;;;29.65;;
43606;SDS011;29197;44.788;10.366;2022-11-14T05:27:13;41.60;;;26.13;;
43606;SDS011;29197;44.788;10.366;2022-11-14T05:30:03;45.70;;;28.98;;
43606;SDS011;29197;44.788;10.366;2022-11-14T05:32:52;49.30;;;27.93;;
43606;SDS011;29197;44.788;10.366;2022-11-14T05:35:42;47.65;;;28.88;;
43606;SDS011;29197;44.788;10.366;2022-11-14T05:38:31;50.90;;;29.03;;
43606;SDS011;29197;44.788;10.366;2022-11-14T05:41:20;55.75;;;30.42;;
43606;SDS011;29197;44.788;10.366;2022-11-14T05:44:11;50.07;;;28.50;;
43606;SDS011;29197;44.788;10.366;2022-11-14T05:47:00;53.30;;;28.53;;
43606;SDS011;29197;44.788;10.366;2022-11-14T05:49:49;54.13;;;30.10;;
43606;SDS011;29197;44.788;10.366;2022-11-14T05:52:39;57.03;;;30.67;;
43606;SDS011;29197;44.788;10.366;2022-11-14T05:55:28;56.03;;;31.63;;
43606;SDS011;29197;44.788;10.366;2022-11-14T05:58:17;57.83;;;31.63;;
43606;SDS011;29197;44.788;10.366;2022-11-14T06:01:08;53.67;;;30.93;;
43606;SDS011;29197;44.788;10.366;2022-11-14T06:03:58;57.67;;;31.47;;
43606;SDS011;29197;44.788;10.366;2022-11-14T06:06:46;57.33;;;32.03;;
43606;SDS011;29197;44.788;10.366;2022-11-14T06:09:35;61.53;;;32.70;;
43606;SDS011;29197;44.788;10.366;2022-11-14T06:12:25;60.13;;;32.10;;
43606;SDS011;29197;44.788;10.366;2022-11-14T06:15:14;58.73;;;33.17;;
43606;SDS011;29197;44.788;10.366;2022-11-14T06:18:05;54.63;;;30.80;;
43606;SDS011;29197;44.788;10.366;2022-11-14T06:20:57;55.13;;;31.07;;
43606;SDS011;29197;44.788;10.366;2022-11-14T06:23:49;56.87;;;31.90;;
43606;SDS011;29197;44.788;10.366;2022-11-14T06:26:38;56.90;;;31.87;;
43606;SDS011;29197;44.788;10.366;2022-11-14T06:29:28;67.38;;;34.05;;
43606;SDS011;29197;44.788;10.366;2022-11-14T06:32:21;58.90;;;32.17;;
43606;SDS011;29197;44.788;10.366;2022-11-14T06:35:11;53.87;;;31.17;;
43606;SDS011;29197;44.788;10.366;2022-11-14T06:38:01;56.57;;;31.73;;
43606;SDS011;29197;44.788;10.366;2022-11-14T06:40:50;59.20;;;32.73;;
43606;SDS011;29197;44.788;10.366;2022-11-14T06:43:40;54.10;;;30.23;;
43606;SDS011;29197;44.788;10.366;2022-11-14T06:46:30;54.57;;;31.37;;
43606;SDS011;29197;44.788;10.366;2022-11-14T06:49:20;56.47;;;30.57;;
43606;SDS011;29197;44.788;10.366;2022-11-14T06:52:11;46.40;;;26.07;;
43606;SDS011;29197;44.788;10.366;2022-11-14T06:55:01;58.70;;;31.98;;
43606;SDS011;29197;44.788;10.366;2022-11-14T06:57:51;57.97;;;31.70;;
43606;SDS011;29197;44.788;10.366;2022-11-14T07:00:41;48.73;;;28.03;;
43606;SDS011;29197;44.788;10.366;2022-11-14T07:03:30;57.35;;;32.28;;
43606;SDS011;29197;44.788;10.366;2022-11-14T07:06:22;56.77;;;30.23;;
43606;SDS011;29197;44.788;10.366;2022-11-14T07:09:13;55.83;;;30.10;;
43606;SDS011;29197;44.788;10.366;2022-11-14T07:12:02;59.58;;;32.28;;
43606;SDS011;29197;44.788;10.366;2022-11-14T07:14:52;50.10;;;29.90;;
43606;SDS011;29197;44.788;10.366;2022-11-14T07:17:41;58.60;;;31.60;;
43606;SDS011;29197;44.788;10.366;2022-11-14T07:20:30;55.00;;;31.92;;
43606;SDS011;29197;44.788;10.366;2022-11-14T07:23:20;57.80;;;32.00;;
43606;SDS011;29197;44.788;10.366;2022-11-14T07:26:11;60.10;;;31.87;;
43606;SDS011;29197;44.788;10.366;2022-11-14T07:29:00;57.00;;;31.90;;
43606;SDS011;29197;44.788;10.366;2022-11-14T07:31:49;58.70;;;32.57;;
43606;SDS011;29197;44.788;10.366;2022-11-14T07:34:40;61.37;;;33.27;;
43606;SDS011;29197;44.788;10.366;2022-11-14T07:37:29;55.93;;;32.30;;
43606;SDS011;29197;44.788;10.366;2022-11-14T07:40:19;64.30;;;31.67;;
43606;SDS011;29197;44.788;10.366;2022-11-14T07:43:09;54.83;;;31.10;;
43606;SDS011;29197;44.788;10.366;2022-11-14T07:45:59;49.43;;;27.80;;
43606;SDS011;29197;44.788;10.366;2022-11-14T07:48:49;52.77;;;29.17;;
43606;SDS011;29197;44.788;10.366;2022-11-14T07:51:38;53.85;;;30.30;;
43606;SDS011;29197;44.788;10.366;2022-11-14T07:54:28;52.23;;;29.87;;
43606;SDS011;29197;44.788;10.366;2022-11-14T07:57:17;49.95;;;28.67;;
43606;SDS011;29197;44.788;10.366;2022-11-14T08:00:09;49.17;;;27.80;;
43606;SDS011;29197;44.788;10.366;2022-11-14T08:02:58;52.10;;;29.47;;
43606;SDS011;29197;44.788;10.366;2022-11-14T08:05:48;54.08;;;29.33;;
43606;SDS011;29197;44.788;10.366;2022-11-14T08:08:36;48.23;;;27.50;;
43606;SDS011;29197;44.788;10.366;2022-11-14T08:11:26;49.88;;;27.98;;
43606;SDS011;29197;44.788;10.366;2022-11-14T08:14:33;45.80;;;26.27;;
43606;SDS011;29197;44.788;10.366;2022-11-14T08:17:23;48.42;;;28.02;;
43606;SDS011;29197;44.788;10.366;2022-11-14T08:20:13;51.20;;;30.58;;
43606;SDS011;29197;44.788;10.366;2022-11-14T08:23:03;47.78;;;27.23;;
43606;SDS011;29197;44.788;10.366;2022-11-14T08:25:52;52.20;;;30.45;;
43606;SDS011;29197;44.788;10.366;2022-11-14T08:28:42;47.45;;;27.15;;
43606;SDS011;29197;44.788;10.366;2022-11-14T08:31:31;45.83;;;26.40;;
43606;SDS011;29197;44.788;10.366;2022-11-14T08:34:23;50.55;;;28.23;;
43606;SDS011;29197;44.788;10.366;2022-11-14T08:37:15;46.72;;;27.05;;
43606;SDS011;29197;44.788;10.366;2022-11-14T08:40:04;44.55;;;26.20;;
43606;SDS011;29197;44.788;10.366;2022-11-14T08:42:57;41.28;;;25.38;;
43606;SDS011;29197;44.788;10.366;2022-11-14T08:45:47;46.35;;;25.92;;
43606;SDS011;29197;44.788;10.366;2022-11-14T08:48:36;43.72;;;23.42;;
43606;SDS011;29197;44.788;10.366;2022-11-14T08:51:27;45.08;;;26.13;;
43606;SDS011;29197;44.788;10.366;2022-11-14T08:54:16;41.30;;;24.33;;
43606;SDS011;29197;44.788;10.366;2022-11-14T08:57:06;44.90;;;26.25;;
43606;SDS011;29197;44.788;10.366;2022-11-14T08:59:57;43.42;;;25.98;;
43606;SDS011;29197;44.788;10.366;2022-11-14T09:02:48;43.75;;;24.95;;
43606;SDS011;29197;44.788;10.366;2022-11-14T09:05:37;44.33;;;26.40;;
43606;SDS011;29197;44.788;10.366;2022-11-14T09:08:28;44.35;;;25.65;;
43606;SDS011;29197;44.788;10.366;2022-11-14T09:11:18;43.20;;;25.55;;
43606;SDS011;29197;44.788;10.366;2022-11-14T09:14:07;43.17;;;25.77;;
43606;SDS011;29197;44.788;10.366;2022-11-14T09:16:56;43.45;;;26.25;;
43606;SDS011;29197;44.788;10.366;2022-11-14T09:19:51;43.65;;;25.20;;
43606;SDS011;29197;44.788;10.366;2022-11-14T09:22:41;44.60;;;25.33;;
43606;SDS011;29197;44.788;10.366;2022-11-14T09:25:32;39.83;;;23.98;;
43606;SDS011;29197;44.788;10.366;2022-11-14T09:28:21;35.00;;;20.83;;
43606;SDS011;29197;44.788;10.366;2022-11-14T09:31:11;38.95;;;22.65;;
43606;SDS011;29197;44.788;10.366;2022-11-14T09:34:01;34.53;;;21.20;;
43606;SDS011;29197;44.788;10.366;2022-11-14T09:36:50;33.88;;;20.52;;
43606;SDS011;29197;44.788;10.366;2022-11-14T09:39:39;34.42;;;20.92;;
43606;SDS011;29197;44.788;10.366;2022-11-14T09:42:33;33.55;;;19.77;;
43606;SDS011;29197;44.788;10.366;2022-11-14T09:45:37;32.53;;;20.05;;
43606;SDS011;29197;44.788;10.366;2022-11-14T09:48:31;37.35;;;23.63;;
43606;SDS011;29197;44.788;10.366;2022-11-14T09:51:20;35.28;;;22.85;;
43606;SDS011;29197;44.788;10.366;2022-11-14T09:54:14;35.70;;;23.15;;
43606;SDS011;29197;44.788;10.366;2022-11-14T09:57:12;34.72;;;22.50;;
43606;SDS011;29197;44.788;10.366;2022-11-14T10:00:05;37.65;;;22.95;;
43606;SDS011;29197;44.788;10.366;2022-11-14T10:03:04;37.75;;;23.67;;
43606;SDS011;29197;44.788;10.366;2022-11-14T10:06:02;42.38;;;25.25;;
43606;SDS011;29197;44.788;10.366;2022-11-14T10:09:19;37.55;;;23.85;;
43606;SDS011;29197;44.788;10.366;2022-11-14T10:12:26;48.35;;;23.92;;
43606;SDS011;29197;44.788;10.366;2022-11-14T10:15:26;37.20;;;23.73;;
43606;SDS011;29197;44.788;10.366;2022-11-14T10:18:28;35.00;;;22.33;;
43606;SDS011;29197;44.788;10.366;2022-11-14T10:21:31;39.08;;;24.83;;
43606;SDS011;29197;44.788;10.366;2022-11-14T10:28:00;36.38;;;23.65;;
43606;SDS011;29197;44.788;10.366;2022-11-14T10:31:02;43.13;;;26.20;;
43606;SDS011;29197;44.788;10.366;2022-11-14T10:33:58;38.05;;;23.15;;
43606;SDS011;29197;44.788;10.366;2022-11-14T10:36:55;33.13;;;22.42;;
43606;SDS011;29197;44.788;10.366;2022-11-14T10:39:51;37.60;;;22.75;;
43606;SDS011;29197;44.788;10.366;2022-11-14T10:42:44;32.83;;;22.38;;
43606;SDS011;29197;44.788;10.366;2022-11-14T10:45:37;33.33;;;23.02;;
43606;SDS011;29197;44.788;10.366;2022-11-14T10:48:32;33.17;;;23.23;;
43606;SDS011;29197;44.788;10.366;2022-11-14T10:51:25;34.05;;;22.27;;
43606;SDS011;29197;44.788;10.366;2022-11-14T10:54:20;39.25;;;24.13;;
43606;SDS011;29197;44.788;10.366;2022-11-14T10:57:14;34.58;;;22.33;;
43606;SDS011;29197;44.788;10.366;2022-11-14T11:00:07;35.55;;;23.52;;
43606;SDS011;29197;44.788;10.366;2022-11-14T11:03:02;37.00;;;23.65;;
43606;SDS011;29197;44.788;10.366;2022-11-14T11:05:52;30.98;;;22.25;;
43606;SDS011;29197;44.788;10.366;2022-11-14T11:08:44;34.03;;;23.33;;
43606;SDS011;29197;44.788;10.366;2022-11-14T11:11:51;38.15;;;24.42;;
43606;SDS011;29197;44.788;10.366;2022-11-14T11:14:42;35.53;;;23.48;;
43606;SDS011;29197;44.788;10.366;2022-11-14T11:17:33;31.90;;;22.48;;
43606;SDS011;29197;44.788;10.366;2022-11-14T11:20:30;33.75;;;23.10;;
43606;SDS011;29197;44.788;10.366;2022-11-14T11:23:25;33.50;;;22.17;;
43606;SDS011;29197;44.788;10.366;2022-11-14T11:26:16;35.67;;;23.38;;
43606;SDS011;29197;44.788;10.366;2022-11-14T11:29:13;32.58;;;21.33;;
43606;SDS011;29197;44.788;10.366;2022-11-14T11:32:03;29.67;;;21.02;;
43606;SDS011;29197;44.788;10.366;2022-11-14T11:34:53;33.38;;;22.75;;
43606;SDS011;29197;44.788;10.366;2022-11-14T11:37:43;31.48;;;21.00;;
43606;SDS011;29197;44.788;10.366;2022-11-14T11:40:42;31.70;;;20.60;;
43606;SDS011;29197;44.788;10.366;2022-11-14T11:43:38;31.48;;;20.88;;
43606;SDS011;29197;44.788;10.366;2022-11-14T11:46:31;31.92;;;21.42;;
43606;SDS011;29197;44.788;10.366;2022-11-14T11:49:32;30.75;;;21.02;;
43606;SDS011;29197;44.788;10.366;2022-11-14T11:52:26;29.75;;;21.25;;
43606;SDS011;29197;44.788;10.366;2022-11-14T11:55:20;31.48;;;21.30;;
43606;SDS011;29197;44.788;10.366;2022-11-14T11:58:18;30.27;;;20.70;;
43606;SDS011;29197;44.788;10.366;2022-11-14T12:01:10;34.75;;;21.67;;
43606;SDS011;29197;44.788;10.366;2022-11-14T12:04:01;32.20;;;21.20;;
43606;SDS011;29197;44.788;10.366;2022-11-14T12:06:52;33.72;;;21.92;;
43606;SDS011;29197;44.788;10.366;2022-11-14T12:09:45;29.95;;;20.58;;
43606;SDS011;29197;44.788;10.366;2022-11-14T12:13:09;34.38;;;21.30;;
43606;SDS011;29197;44.788;10.366;2022-11-14T12:16:35;33.33;;;21.90;;
43606;SDS011;29197;44.788;10.366;2022-11-14T12:19:46;31.60;;;21.15;;
43606;SDS011;29197;44.788;10.366;2022-11-14T12:26:10;32.20;;;20.73;;
43606;SDS011;29197;44.788;10.366;2022-11-14T12:29:19;31.38;;;21.10;;
43606;SDS011;29197;44.788;10.366;2022-11-14T12:32:26;28.85;;;19.95;;
43606;SDS011;29197;44.788;10.366;2022-11-14T12:35:19;30.42;;;20.95;;
43606;SDS011;29197;44.788;10.366;2022-11-14T12:38:12;29.92;;;19.90;;
43606;SDS011;29197;44.788;10.366;2022-11-14T12:41:03;28.50;;;19.95;;
43606;SDS011;29197;44.788;10.366;2022-11-14T12:47:16;29.88;;;19.08;;
43606;SDS011;29197;44.788;10.366;2022-11-14T12:50:28;29.52;;;19.42;;
43606;SDS011;29197;44.788;10.366;2022-11-14T12:53:39;30.67;;;19.27;;
43606;SDS011;29197;44.788;10.366;2022-11-14T12:59:48;28.73;;;19.60;;
43606;SDS011;29197;44.788;10.366;2022-11-14T13:06:02;31.35;;;19.60;;
43606;SDS011;29197;44.788;10.366;2022-11-14T13:09:08;28.60;;;19.48;;
43606;SDS011;29197;44.788;10.366;2022-11-14T13:15:45;27.85;;;19.65;;
43606;SDS011;29197;44.788;10.366;2022-11-14T13:18:54;30.10;;;19.40;;
43606;SDS011;29197;44.788;10.366;2022-11-14T13:25:15;27.80;;;18.63;;
43606;SDS011;29197;44.788;10.366;2022-11-14T13:31:17;26.73;;;18.08;;
43606;SDS011;29197;44.788;10.366;2022-11-14T13:37:24;29.30;;;19.08;;
43606;SDS011;29197;44.788;10.366;2022-11-14T13:40:19;27.88;;;18.65;;
43606;SDS011;29197;44.788;10.366;2022-11-14T13:43:12;26.33;;;18.08;;
43606;SDS011;29197;44.788;10.366;2022-11-14T13:46:05;26.38;;;18.55;;
43606;SDS011;29197;44.788;10.366;2022-11-14T13:49:02;26.73;;;18.80;;
43606;SDS011;29197;44.788;10.366;2022-11-14T13:51:57;29.58;;;18.30;;
43606;SDS011;29197;44.788;10.366;2022-11-14T13:54:48;29.65;;;18.58;;
43606;SDS011;29197;44.788;10.366;2022-11-14T13:57:40;26.33;;;18.13;;
43606;SDS011;29197;44.788;10.366;2022-11-14T14:00:41;23.45;;;16.80;;
43606;SDS011;29197;44.788;10.366;2022-11-14T14:03:41;23.08;;;16.40;;
43606;SDS011;29197;44.788;10.366;2022-11-14T14:06:36;29.33;;;17.95;;
43606;SDS011;29197;44.788;10.366;2022-11-14T14:09:31;26.10;;;16.70;;
43606;SDS011;29197;44.788;10.366;2022-11-14T14:12:32;24.92;;;16.73;;
43606;SDS011;29197;44.788;10.366;2022-11-14T14:15:28;25.65;;;16.63;;
43606;SDS011;29197;44.788;10.366;2022-11-14T14:18:21;23.15;;;15.20;;
43606;SDS011;29197;44.788;10.366;2022-11-14T14:21:14;23.55;;;16.48;;
43606;SDS011;29197;44.788;10.366;2022-11-14T14:24:09;24.88;;;16.42;;
43606;SDS011;29197;44.788;10.366;2022-11-14T14:27:03;25.58;;;17.15;;
43606;SDS011;29197;44.788;10.366;2022-11-14T14:30:00;27.15;;;17.20;;
43606;SDS011;29197;44.788;10.366;2022-11-14T14:33:08;25.00;;;16.50;;
43606;SDS011;29197;44.788;10.366;2022-11-14T14:35:58;25.02;;;17.92;;
43606;SDS011;29197;44.788;10.366;2022-11-14T14:38:47;24.17;;;16.15;;
43606;SDS011;29197;44.788;10.366;2022-11-14T14:41:38;25.80;;;16.88;;
43606;SDS011;29197;44.788;10.366;2022-11-14T14:44:27;26.27;;;16.13;;
43606;SDS011;29197;44.788;10.366;2022-11-14T14:47:35;25.27;;;16.52;;
43606;SDS011;29197;44.788;10.366;2022-11-14T14:50:26;25.77;;;17.00;;
43606;SDS011;29197;44.788;10.366;2022-11-14T14:53:17;21.88;;;15.57;;
43606;SDS011;29197;44.788;10.366;2022-11-14T14:56:17;24.20;;;16.00;;
43606;SDS011;29197;44.788;10.366;2022-11-14T14:59:14;28.80;;;17.17;;
43606;SDS011;29197;44.788;10.366;2022-11-14T15:02:07;25.50;;;16.70;;
43606;SDS011;29197;44.788;10.366;2022-11-14T15:05:02;28.25;;;17.60;;
43606;SDS011;29197;44.788;10.366;2022-11-14T15:07:54;25.48;;;16.77;;
43606;SDS011;29197;44.788;10.366;2022-11-14T15:10:44;28.20;;;17.02;;
43606;SDS011;29197;44.788;10.366;2022-11-14T15:13:33;24.60;;;15.90;;
43606;SDS011;29197;44.788;10.366;2022-11-14T15:16:24;26.63;;;17.10;;
43606;SDS011;29197;44.788;10.366;2022-11-14T15:19:15;22.30;;;15.27;;
43606;SDS011;29197;44.788;10.366;2022-11-14T15:22:21;26.67;;;16.38;;
43606;SDS011;29197;44.788;10.366;2022-11-14T15:25:16;24.05;;;15.23;;
43606;SDS011;29197;44.788;10.366;2022-11-14T15:28:14;23.80;;;16.55;;
43606;SDS011;29197;44.788;10.366;2022-11-14T15:31:04;23.08;;;17.00;;
43606;SDS011;29197;44.788;10.366;2022-11-14T15:34:00;25.05;;;16.30;;
43606;SDS011;29197;44.788;10.366;2022-11-14T15:40:13;25.58;;;16.48;;
43606;SDS011;29197;44.788;10.366;2022-11-14T15:46:23;25.95;;;16.20;;
43606;SDS011;29197;44.788;10.366;2022-11-14T15:49:20;25.48;;;17.05;;
43606;SDS011;29197;44.788;10.366;2022-11-14T15:52:15;30.02;;;18.20;;
43606;SDS011;29197;44.788;10.366;2022-11-14T15:55:11;24.05;;;16.85;;
43606;SDS011;29197;44.788;10.366;2022-11-14T15:58:00;28.50;;;18.08;;
43606;SDS011;29197;44.788;10.366;2022-11-14T16:01:12;25.50;;;17.48;;
43606;SDS011;29197;44.788;10.366;2022-11-14T16:04:02;25.45;;;17.23;;
43606;SDS011;29197;44.788;10.366;2022-11-14T16:06:52;31.73;;;16.90;;
43606;SDS011;29197;44.788;10.366;2022-11-14T16:09:41;22.88;;;16.35;;
43606;SDS011;29197;44.788;10.366;2022-11-14T16:12:34;26.63;;;17.38;;
43606;SDS011;29197;44.788;10.366;2022-11-14T16:15:23;28.17;;;18.20;;
43606;SDS011;29197;44.788;10.366;2022-11-14T16:18:13;30.98;;;16.83;;
43606;SDS011;29197;44.788;10.366;2022-11-14T16:21:02;28.13;;;17.75;;
43606;SDS011;29197;44.788;10.366;2022-11-14T16:23:52;29.23;;;17.63;;
43606;SDS011;29197;44.788;10.366;2022-11-14T16:26:41;28.20;;;17.95;;
43606;SDS011;29197;44.788;10.366;2022-11-14T16:29:32;27.35;;;18.00;;
43606;SDS011;29197;44.788;10.366;2022-11-14T16:32:21;28.38;;;17.98;;
43606;SDS011;29197;44.788;10.366;2022-11-14T16:35:13;29.67;;;17.98;;
43606;SDS011;29197;44.788;10.366;2022-11-14T16:38:04;27.42;;;17.80;;
43606;SDS011;29197;44.788;10.366;2022-11-14T16:40:53;32.30;;;18.58;;
43606;SDS011;29197;44.788;10.366;2022-11-14T16:43:43;30.15;;;18.63;;
43606;SDS011;29197;44.788;10.366;2022-11-14T16:46:34;32.20;;;19.65;;
43606;SDS011;29197;44.788;10.366;2022-11-14T16:49:26;33.78;;;19.65;;
43606;SDS011;29197;44.788;10.366;2022-11-14T16:52:15;33.58;;;20.15;;
43606;SDS011;29197;44.788;10.366;2022-11-14T16:55:05;30.38;;;19.02;;
43606;SDS011;29197;44.788;10.366;2022-11-14T16:57:55;32.33;;;20.48;;
43606;SDS011;29197;44.788;10.366;2022-11-14T17:00:44;33.30;;;19.80;;
43606;SDS011;29197;44.788;10.366;2022-11-14T17:03:35;32.58;;;19.80;;
43606;SDS011;29197;44.788;10.366;2022-11-14T17:06:25;35.53;;;21.30;;
43606;SDS011;29197;44.788;10.366;2022-11-14T17:09:14;37.83;;;21.55;;
43606;SDS011;29197;44.788;10.366;2022-11-14T17:12:04;34.92;;;20.45;;